createdAt,value
2019-04-13T00:02:16.198Z,2.60
2019-04-13T00:08:22.475Z,2.70
2019-04-13T00:14:27.217Z,2.60
2019-04-13T00:20:31.894Z,2.70
2019-04-13T00:26:36.433Z,2.80
2019-04-13T00:32:40.987Z,2.70
2019-04-13T00:38:45.528Z,2.70
2019-04-13T00:44:50.083Z,2.80
2019-04-13T00:50:54.647Z,2.80
2019-04-13T00:56:59.259Z,2.70
2019-04-13T01:03:03.881Z,2.50
2019-04-13T01:09:09.279Z,2.40
2019-04-13T01:15:14.062Z,2.30
2019-04-13T01:21:18.965Z,2.40
2019-04-13T01:27:23.713Z,2.30
2019-04-13T01:33:28.269Z,2.40
2019-04-13T01:39:33.195Z,2.40
2019-04-13T01:45:37.751Z,2.50
2019-04-13T01:51:42.312Z,2.50
2019-04-13T01:57:46.942Z,2.50
2019-04-13T02:04:08.129Z,2.50
2019-04-13T02:10:14.608Z,2.50
2019-04-13T02:16:19.175Z,2.50
2019-04-13T02:22:23.757Z,2.60
2019-04-13T02:28:28.293Z,2.60
2019-04-13T02:34:32.902Z,2.60
2019-04-13T02:40:37.435Z,2.50
2019-04-13T02:46:42.017Z,2.50
2019-04-13T02:52:46.643Z,2.50
2019-04-13T02:58:51.976Z,2.50
2019-04-13T03:04:56.716Z,2.50
2019-04-13T03:11:01.388Z,2.30
2019-04-13T03:17:19.636Z,2.20
2019-04-13T03:23:24.210Z,2.10
2019-04-13T03:29:29.230Z,2.10
2019-04-13T03:35:33.864Z,2.10
2019-04-13T03:41:39.180Z,2.20
2019-04-13T03:47:43.731Z,2.20
2019-04-13T03:53:48.295Z,2.20
2019-04-13T03:59:52.848Z,2.20
2019-04-13T04:05:57.411Z,2.30
2019-04-13T04:12:02.026Z,2.20
2019-04-13T04:18:06.653Z,2.30
2019-04-13T04:24:11.204Z,2.10
2019-04-13T04:30:15.904Z,2.10
2019-04-13T04:36:24.030Z,2.10
2019-04-13T04:42:26.895Z,2.10
2019-04-13T04:48:31.459Z,2.20
2019-04-13T04:54:37.528Z,2.20
2019-04-13T05:00:42.120Z,2.10
2019-04-13T05:06:46.650Z,2.00
2019-04-13T05:12:51.194Z,1.90
2019-04-13T05:18:55.740Z,1.90
2019-04-13T05:25:00.313Z,1.80
2019-04-13T05:31:04.878Z,1.80
2019-04-13T05:37:09.425Z,1.90
2019-04-13T05:43:14.468Z,2.00
2019-04-13T05:49:19.451Z,2.20
2019-04-13T05:55:23.996Z,2.20
2019-04-13T06:01:28.551Z,2.40
2019-04-13T06:07:33.150Z,2.50
2019-04-13T06:13:37.800Z,2.60
2019-04-13T06:19:42.395Z,2.80
2019-04-13T06:25:47.025Z,2.90
2019-04-13T06:31:55.689Z,3.10
2019-04-13T06:38:00.225Z,3.30
2019-04-13T06:44:04.953Z,3.50
2019-04-13T06:50:09.582Z,3.70
2019-04-13T06:56:14.145Z,4.00
2019-04-13T07:02:18.699Z,4.10
2019-04-13T07:08:37.815Z,4.10
2019-04-13T07:14:33.585Z,4.40
2019-04-13T07:20:38.148Z,4.70
2019-04-13T07:26:42.786Z,4.80
2019-04-13T07:32:47.348Z,5.00
2019-04-13T07:38:51.930Z,5.20
2019-04-13T07:44:58.111Z,5.50
2019-04-13T07:51:10.122Z,5.60
2019-04-13T07:57:14.783Z,5.70
2019-04-13T08:03:19.355Z,5.80
2019-04-13T08:09:23.993Z,5.60
2019-04-13T08:15:28.886Z,5.50
2019-04-13T08:21:35.047Z,5.70
2019-04-13T08:27:39.606Z,5.60
2019-04-13T08:33:44.224Z,5.50
2019-04-13T08:40:01.635Z,5.80
2019-04-13T08:45:55.108Z,5.80
2019-04-13T08:51:59.648Z,5.90
2019-04-13T08:58:04.347Z,5.80
2019-04-13T09:04:08.902Z,5.40
2019-04-13T09:10:16.350Z,5.70
2019-04-13T09:16:20.703Z,5.90
2019-04-13T09:22:25.363Z,5.80
2019-04-13T09:28:29.927Z,5.50
2019-04-13T09:34:34.985Z,5.20
2019-04-13T09:40:39.743Z,5.00
2019-04-13T09:46:45.142Z,4.40
2019-04-13T09:52:49.779Z,4.40
2019-04-13T09:58:54.344Z,4.50
2019-04-13T10:04:59.539Z,4.50
2019-04-13T10:11:04.276Z,4.70
2019-04-13T10:17:23.316Z,4.80
2019-04-13T10:23:27.467Z,4.90
2019-04-13T10:29:31.540Z,5.00
2019-04-13T10:35:36.152Z,4.90
2019-04-13T10:41:40.712Z,4.90
2019-04-13T10:48:03.093Z,4.80
2019-04-13T10:54:07.667Z,4.80
2019-04-13T11:00:12.874Z,4.80
2019-04-13T11:06:17.542Z,4.70
2019-04-13T11:12:22.103Z,4.60
2019-04-13T11:18:26.737Z,4.50
2019-04-13T11:24:31.361Z,4.50
2019-04-13T11:30:35.989Z,4.50
2019-04-13T11:36:40.544Z,4.40
2019-04-13T11:42:44.863Z,4.60
2019-04-13T11:48:59.832Z,4.50
2019-04-13T11:55:05.610Z,4.80
2019-04-13T12:01:11.911Z,5.00
2019-04-13T12:07:24.245Z,5.30
2019-04-13T12:13:46.873Z,5.70
2019-04-13T12:20:03.176Z,6.20
2019-04-13T12:26:08.592Z,6.00
2019-04-13T12:32:14.813Z,6.10
2019-04-13T12:38:19.356Z,6.40
2019-04-13T12:44:36.500Z,7.10
2019-04-13T12:50:30.635Z,8.00
2019-04-13T12:56:35.268Z,8.80
2019-04-13T13:02:44.397Z,8.50
2019-04-13T13:08:48.943Z,7.60
2019-04-13T13:14:53.499Z,7.30
2019-04-13T13:20:58.289Z,7.10
2019-04-13T13:27:02.900Z,6.50
2019-04-13T13:33:07.440Z,6.50
2019-04-13T13:39:13.958Z,6.50
2019-04-13T13:45:18.424Z,5.30
2019-04-13T13:51:26.622Z,4.80
2019-04-13T13:57:29.338Z,4.80
2019-04-13T14:03:34.213Z,5.00
2019-04-13T14:09:38.754Z,5.80
2019-04-13T14:15:43.296Z,6.30
2019-04-13T14:21:47.849Z,6.30
2019-04-13T14:27:52.427Z,6.40
2019-04-13T14:33:57.117Z,6.50
2019-04-13T14:40:03.497Z,6.60
2019-04-13T14:46:10.302Z,6.80
2019-04-13T14:52:15.913Z,6.80
2019-04-13T14:58:20.468Z,6.50
2019-04-13T15:04:25.045Z,6.40
2019-04-13T15:10:29.609Z,6.30
2019-04-13T15:16:34.173Z,6.20
2019-04-13T15:22:39.750Z,6.40
2019-04-13T15:28:45.189Z,6.70
2019-04-13T15:34:51.099Z,7.10
2019-04-13T15:40:58.831Z,7.90
2019-04-13T15:47:06.607Z,8.00
2019-04-13T15:53:08.315Z,7.10
2019-04-13T15:59:15.565Z,6.90
2019-04-13T16:05:19.886Z,7.50
2019-04-13T16:11:27.231Z,6.80
2019-04-13T16:17:31.935Z,6.10
2019-04-13T16:23:36.961Z,6.00
2019-04-13T16:29:49.331Z,5.70
2019-04-13T16:36:16.153Z,5.80
2019-04-13T16:42:23.632Z,6.30
2019-04-13T16:48:28.170Z,7.40
2019-04-13T16:54:51.704Z,8.50
2019-04-13T17:01:06.781Z,8.70
2019-04-13T17:07:11.468Z,7.80
2019-04-13T17:13:16.249Z,7.20
2019-04-13T17:19:40.805Z,6.90
2019-04-13T17:25:47.950Z,6.70
2019-04-13T17:32:06.538Z,6.40
2019-04-13T17:38:11.322Z,5.90
2019-04-13T17:44:20.421Z,5.70
2019-04-13T17:50:25.151Z,5.60
2019-04-13T17:56:29.896Z,5.50
2019-04-13T18:02:51.151Z,5.40
2019-04-13T18:09:00.025Z,5.40
2019-04-13T18:15:07.968Z,5.40
2019-04-13T18:21:13.619Z,5.40
2019-04-13T18:27:19.425Z,5.30
2019-04-13T18:33:24.039Z,5.20
2019-04-13T18:39:29.703Z,5.10
2019-04-13T18:45:34.334Z,5.00
2019-04-13T18:51:39.825Z,4.90
2019-04-13T18:57:44.526Z,4.80
2019-04-13T19:03:49.081Z,4.70
2019-04-13T19:09:53.665Z,4.60
2019-04-13T19:15:58.325Z,4.50
2019-04-13T19:22:02.947Z,4.30
2019-04-13T19:28:07.673Z,4.20
2019-04-13T19:34:12.343Z,4.10
2019-04-13T19:40:17.057Z,4.00
2019-04-13T19:46:21.594Z,3.90
2019-04-13T19:52:33.323Z,3.90
2019-04-13T19:58:37.853Z,4.00
2019-04-13T20:04:42.411Z,4.00
2019-04-13T20:10:47.062Z,4.00
2019-04-13T20:16:51.616Z,4.10
2019-04-13T20:22:56.176Z,4.00
2019-04-13T20:29:01.510Z,3.90
2019-04-13T20:35:06.587Z,3.90
2019-04-13T20:41:15.673Z,3.90
2019-04-13T20:47:20.241Z,3.70
2019-04-13T20:53:24.810Z,3.80
2019-04-13T20:59:30.320Z,3.90
2019-04-13T21:05:35.859Z,4.00
2019-04-13T21:11:41.673Z,4.00
2019-04-13T21:17:46.437Z,4.10
2019-04-13T21:23:51.746Z,4.10
2019-04-13T21:29:56.868Z,4.10
2019-04-13T21:36:02.154Z,4.10
2019-04-13T21:42:08.519Z,4.10
2019-04-13T21:48:13.238Z,4.10
2019-04-13T21:54:19.513Z,4.20
2019-04-13T22:00:27.724Z,4.20
2019-04-13T22:06:32.360Z,4.20
2019-04-13T22:12:37.195Z,4.20
2019-04-13T22:18:43.168Z,4.20
2019-04-13T22:24:48.456Z,4.10
2019-04-13T22:31:00.897Z,4.10
2019-04-13T22:37:06.092Z,4.10
2019-04-13T22:43:11.070Z,4.00
2019-04-13T22:49:17.341Z,3.90
2019-04-13T22:55:23.517Z,3.70
2019-04-13T23:01:29.699Z,3.60
2019-04-13T23:07:34.738Z,3.40
2019-04-13T23:13:40.582Z,3.30
2019-04-13T23:19:45.748Z,3.10
2019-04-13T23:25:50.542Z,2.90
2019-04-13T23:31:55.081Z,2.80
2019-04-13T23:38:00.726Z,2.80
2019-04-13T23:44:05.382Z,2.70
2019-04-13T23:50:11.016Z,2.70
2019-04-13T23:56:20.061Z,2.60
